Time;durP1;ratioP1;P1;durP2;ratioP2;P2;SDS_P1;SDS_P2;PMS_P1;PMS_P2;Temp;Humidity;BMP_temperature;BMP_pressure;BME280_temperature;BME280_humidity;BME280_pressure;Samples;Min_cycle;Max_cycle;Signal;HPM_P1;HPM_P2
2023/01/31 00:00:21;;;;;;;17.17;3.75;;;;;;;1.99;100.00;101298.53;5012182;28;20247;-44
2023/01/31 00:02:47;;;;;;;10.73;2.80;;;;;;;1.95;100.00;101309.97;5012608;28;20184;-43
2023/01/31 00:05:12;;;;;;;15.95;3.92;;;;;;;2.03;100.00;101313.53;5012409;28;20279;-42
2023/01/31 00:07:38;;;;;;;21.98;2.85;;;;;;;1.95;100.00;101315.25;5018809;28;20284;-43
2023/01/31 00:10:04;;;;;;;14.70;2.95;;;;;;;1.94;100.00;101308.19;5011114;28;20176;-44
2023/01/31 00:12:29;;;;;;;11.88;3.40;;;;;;;1.91;100.00;101308.19;5012071;28;20165;-43
2023/01/31 00:14:55;;;;;;;13.70;2.45;;;;;;;1.94;100.00;101317.88;5012600;28;20183;-44
2023/01/31 00:17:20;;;;;;;18.13;2.72;;;;;;;1.94;100.00;101312.59;5017159;28;20193;-43
2023/01/31 00:19:45;;;;;;;18.00;3.67;;;;;;;1.97;100.00;101318.78;5012122;28;20636;-43
2023/01/31 00:22:11;;;;;;;15.20;2.97;;;;;;;1.96;100.00;101314.34;5009615;28;20651;-43
2023/01/31 00:24:36;;;;;;;10.32;2.47;;;;;;;1.97;100.00;101312.63;5012299;28;20350;-44
2023/01/31 00:27:02;;;;;;;13.40;3.17;;;;;;;2.00;100.00;101318.78;5010136;28;20204;-49
2023/01/31 00:29:27;;;;;;;11.63;2.38;;;;;;;2.03;100.00;101339.06;5011480;28;20272;-48
2023/01/31 00:31:54;;;;;;;20.13;3.25;;;;;;;2.03;100.00;101332.03;5009615;28;20192;-49
2023/01/31 00:34:19;;;;;;;16.23;2.40;;;;;;;1.99;100.00;101327.59;5011227;28;20577;-48
2023/01/31 00:36:45;;;;;;;16.25;2.50;;;;;;;2.00;100.00;101350.50;5011240;28;20183;-49
2023/01/31 00:39:10;;;;;;;16.30;2.50;;;;;;;2.02;100.00;101340.81;5009861;28;20199;-49
2023/01/31 00:41:37;;;;;;;16.27;2.70;;;;;;;2.00;100.00;101358.44;5009548;28;20179;-47
2023/01/31 00:44:04;;;;;;;15.02;2.75;;;;;;;2.03;100.00;101365.47;5009602;28;20263;-48
2023/01/31 00:46:29;;;;;;;10.93;2.88;;;;;;;2.14;100.00;101360.25;5010130;28;20192;-46
2023/01/31 00:48:56;;;;;;;15.02;2.15;;;;;;;2.01;100.00;101368.13;5011106;28;20335;-50
2023/01/31 00:51:23;;;;;;;17.98;2.20;;;;;;;1.93;100.00;101374.25;5010418;28;20291;-51
2023/01/31 00:53:49;;;;;;;14.45;2.13;;;;;;;1.98;100.00;101381.31;5009087;28;20635;-48
2023/01/31 00:56:18;;;;;;;16.55;2.30;;;;;;;1.92;100.00;101383.03;5011053;28;20183;-49
2023/01/31 00:58:43;;;;;;;15.80;2.20;;;;;;;1.80;100.00;101368.88;5009761;28;20690;-51
2023/01/31 01:01:10;;;;;;;13.10;2.13;;;;;;;1.93;100.00;101374.25;5010645;28;20191;-50
2023/01/31 01:03:37;;;;;;;8.50;1.95;;;;;;;1.96;100.00;101364.56;5009440;28;20192;-46
2023/01/31 01:06:04;;;;;;;17.20;2.90;;;;;;;1.91;100.00;101371.59;5010583;28;20217;-49
2023/01/31 01:08:30;;;;;;;12.23;2.00;;;;;;;1.93;100.00;101358.41;5011301;28;20215;-48
2023/01/31 01:10:56;;;;;;;11.88;2.22;;;;;;;1.90;100.00;101353.97;5008753;28;20188;-46
2023/01/31 01:13:21;;;;;;;14.60;2.42;;;;;;;1.74;100.00;101365.31;5010354;28;20671;-47
2023/01/31 01:15:46;;;;;;;19.35;2.95;;;;;;;1.76;100.00;101367.09;5010760;28;20260;-51
2023/01/31 01:18:15;;;;;;;16.42;2.55;;;;;;;1.64;100.00;101382.88;5008750;28;20259;-49
2023/01/31 01:20:41;;;;;;;20.10;3.05;;;;;;;1.53;100.00;101385.44;5010246;28;20188;-49
2023/01/31 01:23:07;;;;;;;11.57;2.10;;;;;;;1.67;100.00;101379.38;5009395;28;20269;-48
2023/01/31 01:25:41;;;;;;;14.68;2.40;;;;;;;1.80;100.00;101395.31;5010197;28;20212;-48
2023/01/31 01:28:07;;;;;;;14.35;2.38;;;;;;;1.80;100.00;101389.16;5010826;28;20765;-49
2023/01/31 01:30:33;;;;;;;11.63;2.33;;;;;;;1.89;100.00;101378.63;5008400;28;20179;-48
2023/01/31 01:32:59;;;;;;;15.00;2.67;;;;;;;1.89;100.00;101391.84;5009955;28;20192;-46
2023/01/31 01:35:24;;;;;;;7.65;2.10;;;;;;;1.87;100.00;101401.50;5008844;28;20184;-45
2023/01/31 01:37:50;;;;;;;16.13;2.60;;;;;;;1.89;100.00;101398.88;4993071;28;20192;-50
2023/01/31 01:40:16;;;;;;;11.38;2.60;;;;;;;1.92;100.00;101394.47;5007839;28;20192;-48
2023/01/31 01:42:41;;;;;;;13.00;3.05;;;;;;;1.96;100.00;101400.69;5009535;28;20601;-48
2023/01/31 01:45:14;;;;;;;12.55;2.28;;;;;;;1.97;100.00;101402.47;5010203;28;20197;-47
2023/01/31 01:47:51;;;;;;;11.45;2.60;;;;;;;1.96;100.00;101400.69;5008783;28;20200;-48
2023/01/31 01:50:37;;;;;;;17.67;2.55;;;;;;;1.94;100.00;101389.22;5009730;28;20206;-45
2023/01/31 01:53:22;;;;;;;26.65;2.90;;;;;;;1.90;100.00;101390.94;5007069;28;20256;-45
2023/01/31 01:55:50;;;;;;;16.38;2.63;;;;;;;1.89;100.00;101394.47;5009730;28;20216;-48
2023/01/31 01:58:22;;;;;;;11.45;2.30;;;;;;;1.88;100.00;101387.44;5010515;28;20287;-51
2023/01/31 02:00:48;;;;;;;12.40;2.50;;;;;;;1.89;100.00;101404.16;5008112;28;20254;-48
2023/01/31 02:03:16;;;;;;;15.32;2.22;;;;;;;1.77;100.00;101395.28;5008194;28;20267;-47
2023/01/31 02:05:50;;;;;;;11.73;2.35;;;;;;;1.72;100.00;101399.63;5012172;28;20808;-49
2023/01/31 02:08:22;;;;;;;14.02;2.78;;;;;;;1.72;100.00;101399.63;4999834;28;20862;-48
2023/01/31 02:11:02;;;;;;;11.48;2.80;;;;;;;1.63;100.00;101396.94;5006890;28;20177;-48
2023/01/31 02:13:28;;;;;;;17.17;2.38;;;;;;;1.62;100.00;101406.63;5011812;28;20260;-46
2023/01/31 02:15:54;;;;;;;16.90;2.88;;;;;;;1.60;100.00;101416.28;5009703;28;20200;-46
2023/01/31 02:18:22;;;;;;;15.20;2.63;;;;;;;1.62;100.00;101398.69;5009244;28;20208;-49
2023/01/31 02:20:56;;;;;;;19.40;3.03;;;;;;;1.70;100.00;101397.88;5007662;28;20203;-48
2023/01/31 02:23:49;;;;;;;18.70;2.95;;;;;;;1.70;100.00;101404.03;5008172;28;20274;-43
2023/01/31 02:26:36;;;;;;;14.02;2.55;;;;;;;1.61;100.00;101402.19;5008855;28;20211;-46
2023/01/31 02:29:20;;;;;;;13.70;2.40;;;;;;;1.67;100.00;101396.09;4990974;28;20193;-44
2023/01/31 02:32:23;;;;;;;13.82;2.67;;;;;;;1.77;100.00;101410.25;5008668;28;20180;-43
2023/01/31 02:35:12;;;;;;;13.75;2.25;;;;;;;1.65;100.00;101416.31;5006171;28;20192;-44
2023/01/31 02:38:02;;;;;;;18.17;3.00;;;;;;;1.73;100.00;101403.16;5009276;28;20211;-43
2023/01/31 02:40:46;;;;;;;14.40;2.88;;;;;;;1.73;100.00;101419.00;5008363;28;20192;-42
2023/01/31 02:43:25;;;;;;;7.82;2.20;;;;;;;1.68;100.00;101418.09;5012546;28;20184;-42
2023/01/31 02:46:06;;;;;;;12.80;2.65;;;;;;;1.80;100.00;101418.19;5011899;28;20206;-45
2023/01/31 02:48:38;;;;;;;13.35;2.58;;;;;;;1.73;100.00;101413.72;5014820;28;20204;-42
2023/01/31 02:51:27;;;;;;;17.00;2.97;;;;;;;1.76;100.00;101414.66;5014483;28;20192;-40
2023/01/31 02:54:06;;;;;;;15.98;2.67;;;;;;;1.86;100.00;101397.13;5009107;28;20184;-45
2023/01/31 02:56:36;;;;;;;11.73;2.75;;;;;;;1.91;100.00;101392.72;5013018;28;20247;-44
2023/01/31 02:59:07;;;;;;;16.50;2.75;;;;;;;1.89;100.00;101391.84;5007819;28;20327;-44
2023/01/31 03:01:37;;;;;;;20.27;2.70;;;;;;;1.92;100.00;101394.47;5012910;28;20203;-44
2023/01/31 03:04:06;;;;;;;21.38;3.08;;;;;;;1.90;100.00;101396.22;5013091;28;20683;-43
2023/01/31 03:06:35;;;;;;;17.33;2.85;;;;;;;1.92;100.00;101386.56;5012722;28;20196;-44
2023/01/31 03:09:20;;;;;;;11.52;2.33;;;;;;;1.94;100.00;101394.50;5011274;28;20191;-41
2023/01/31 03:11:48;;;;;;;16.65;2.47;;;;;;;1.92;100.00;101394.47;5010894;28;20627;-42
2023/01/31 03:14:45;;;;;;;15.77;4.07;;;;;;;1.97;100.00;101382.22;5011769;28;20241;-42
2023/01/31 03:17:30;;;;;;;11.60;2.40;;;;;;;1.94;100.00;101384.81;5014146;28;20188;-41
2023/01/31 03:20:15;;;;;;;17.55;3.10;;;;;;;1.94;100.00;101392.75;5010688;28;20187;-41
2023/01/31 03:22:53;;;;;;;17.73;2.60;;;;;;;1.92;100.00;101399.78;4999347;28;20191;-42
2023/01/31 03:25:22;;;;;;;17.00;2.53;;;;;;;1.91;100.00;101389.22;5010305;28;20242;-43
2023/01/31 03:27:56;;;;;;;22.10;3.35;;;;;;;1.89;100.00;101394.47;5011430;28;20204;-42
2023/01/31 03:30:39;;;;;;;13.75;2.78;;;;;;;1.91;100.00;101390.09;5009141;28;20332;-42
2023/01/31 03:33:36;;;;;;;16.30;2.63;;;;;;;1.87;100.00;101385.66;5011409;28;20186;-44
2023/01/31 03:36:22;;;;;;;14.60;3.05;;;;;;;1.92;100.00;101380.41;4995436;28;20554;-43
2023/01/31 03:39:18;;;;;;;13.85;2.80;;;;;;;2.01;100.00;101386.63;4961677;28;20613;-43
2023/01/31 03:42:10;;;;;;;14.77;3.00;;;;;;;1.95;100.00;101381.31;5006761;28;20208;-42
2023/01/31 03:44:52;;;;;;;21.80;3.25;;;;;;;2.00;100.00;101376.94;5015874;28;20710;-41
2023/01/31 03:47:24;;;;;;;20.85;2.95;;;;;;;1.94;100.00;101376.88;5011035;28;20212;-42
2023/01/31 03:49:53;;;;;;;15.30;2.78;;;;;;;1.91;100.00;101376.88;5011295;28;20196;-43
2023/01/31 03:52:25;;;;;;;17.23;3.22;;;;;;;1.91;100.00;101387.44;5011088;28;20188;-43
2023/01/31 03:55:06;;;;;;;18.38;2.90;;;;;;;2.00;100.00;101392.78;5011307;28;20181;-43
2023/01/31 03:57:35;;;;;;;14.90;2.90;;;;;;;1.95;100.00;101380.44;5011671;28;20196;-41
2023/01/31 04:00:06;;;;;;;18.00;2.53;;;;;;;1.92;100.00;101381.28;4985552;28;20169;-45
2023/01/31 04:02:41;;;;;;;21.13;3.33;;;;;;;1.94;100.00;101376.00;5011720;28;20250;-43
2023/01/31 04:05:15;;;;;;;18.98;3.08;;;;;;;1.92;100.00;101377.75;5010971;28;20212;-41
2023/01/31 04:07:43;;;;;;;26.55;4.20;;;;;;;1.93;100.00;101380.41;5011350;28;20215;-42
2023/01/31 04:10:18;;;;;;;20.95;2.60;;;;;;;1.93;100.00;101376.91;5013734;28;20184;-43
2023/01/31 04:12:44;;;;;;;15.50;3.08;;;;;;;1.94;100.00;101376.00;5010024;28;20588;-42
2023/01/31 04:15:11;;;;;;;20.42;2.80;;;;;;;1.96;100.00;101375.13;5011007;28;20247;-42
2023/01/31 04:17:36;;;;;;;19.20;3.15;;;;;;;1.97;100.00;101369.00;5012808;28;20197;-42
2023/01/31 04:20:05;;;;;;;13.68;2.47;;;;;;;1.94;100.00;101368.09;5012196;28;20710;-44
2023/01/31 04:22:30;;;;;;;21.60;3.78;;;;;;;1.98;100.00;101360.19;5011762;28;20200;-44
2023/01/31 04:24:56;;;;;;;18.15;2.58;;;;;;;2.01;100.00;101356.66;5011893;28;20200;-43
2023/01/31 04:27:21;;;;;;;18.70;3.10;;;;;;;2.10;100.00;101353.19;5011712;28;20205;-42
2023/01/31 04:29:47;;;;;;;20.48;3.25;;;;;;;2.13;100.00;101338.22;5011778;28;20180;-42
2023/01/31 04:32:12;;;;;;;16.73;3.35;;;;;;;2.15;100.00;101343.53;5011741;28;20276;-43
2023/01/31 04:34:37;;;;;;;14.05;2.58;;;;;;;2.23;100.00;101340.06;5011926;28;20584;-43
2023/01/31 04:37:03;;;;;;;22.02;3.65;;;;;;;2.26;100.00;101350.63;5011747;28;20195;-43
2023/01/31 04:39:28;;;;;;;17.60;3.45;;;;;;;2.24;100.00;101367.38;5010495;28;20176;-43
2023/01/31 04:41:54;;;;;;;22.92;3.25;;;;;;;2.19;100.00;101362.06;5011157;28;20600;-42
2023/01/31 04:44:19;;;;;;;19.65;3.00;;;;;;;2.22;100.00;101367.34;5011891;28;20226;-43
2023/01/31 04:46:48;;;;;;;12.57;2.97;;;;;;;2.33;100.00;101363.88;5017740;28;20560;-44
2023/01/31 04:49:14;;;;;;;23.30;3.28;;;;;;;2.34;100.00;101374.47;5012685;28;20176;-43
2023/01/31 04:51:39;;;;;;;17.35;4.03;;;;;;;2.30;100.00;101385.91;5007974;28;20256;-44
2023/01/31 04:54:05;;;;;;;24.02;3.65;;;;;;;2.36;100.00;101382.38;5008580;28;20276;-44
2023/01/31 04:56:31;;;;;;;26.02;2.97;;;;;;;2.30;100.00;101372.69;5010613;28;20244;-43
2023/01/31 04:58:57;;;;;;;18.75;3.20;;;;;;;2.26;100.00;101371.78;5013481;28;20196;-41
2023/01/31 05:01:23;;;;;;;10.43;2.50;;;;;;;2.30;100.00;101364.75;5009979;28;20191;-44
2023/01/31 05:03:48;;;;;;;18.73;3.45;;;;;;;2.31;100.00;101366.50;5009661;28;20190;-44
2023/01/31 05:06:14;;;;;;;22.42;3.10;;;;;;;2.33;100.00;101359.47;5011427;28;20568;-43
2023/01/31 05:08:39;;;;;;;18.20;3.10;;;;;;;2.30;100.00;101353.31;5011272;28;20208;-44
2023/01/31 05:11:06;;;;;;;13.23;2.70;;;;;;;2.30;100.00;101361.22;5010746;28;20283;-44
2023/01/31 05:13:32;;;;;;;17.67;2.72;;;;;;;2.32;100.00;101368.28;5010646;28;20263;-41
2023/01/31 05:15:58;;;;;;;18.80;2.83;;;;;;;2.38;100.00;101355.06;5011120;28;20168;-42
2023/01/31 05:18:24;;;;;;;18.15;2.67;;;;;;;2.40;100.00;101355.09;5010649;28;20694;-43
2023/01/31 05:20:50;;;;;;;13.32;2.47;;;;;;;2.40;100.00;101348.03;5010311;28;20514;-43
2023/01/31 05:23:16;;;;;;;10.93;2.33;;;;;;;2.43;100.00;101356.00;5009326;28;20177;-43
2023/01/31 05:25:42;;;;;;;11.77;2.55;;;;;;;2.46;100.00;101347.19;5010756;28;20216;-41
2023/01/31 05:28:08;;;;;;;16.27;2.80;;;;;;;2.44;100.00;101341.88;5014268;28;20275;-43
2023/01/31 05:30:33;;;;;;;18.25;2.38;;;;;;;2.46;100.00;101337.47;5010178;28;20542;-43
2023/01/31 05:32:59;;;;;;;11.63;2.17;;;;;;;2.50;100.00;101348.09;5010564;28;20593;-44
2023/01/31 05:35:24;;;;;;;16.42;3.00;;;;;;;2.50;100.00;101351.59;5010488;28;20180;-44
2023/01/31 05:37:52;;;;;;;11.55;2.42;;;;;;;2.48;100.00;101348.94;5010959;28;20192;-45
2023/01/31 05:40:18;;;;;;;16.83;3.03;;;;;;;2.54;100.00;101328.69;5009833;28;20195;-42
2023/01/31 05:42:44;;;;;;;16.40;2.55;;;;;;;2.54;100.00;101319.00;5010495;28;20496;-45
2023/01/31 05:45:10;;;;;;;12.70;2.47;;;;;;;2.58;100.00;101325.16;5009916;28;20282;-44
2023/01/31 05:47:35;;;;;;;21.55;3.03;;;;;;;2.56;100.00;101321.63;5013046;28;20240;-44
2023/01/31 05:50:01;;;;;;;15.45;2.97;;;;;;;2.67;100.00;101330.50;5010550;28;20208;-42
2023/01/31 05:52:26;;;;;;;17.65;2.90;;;;;;;2.71;100.00;101326.94;5011998;28;20601;-43
2023/01/31 05:54:52;;;;;;;20.02;3.47;;;;;;;2.60;100.00;101316.38;5010305;28;20283;-45
2023/01/31 05:57:18;;;;;;;17.00;2.95;;;;;;;2.64;100.00;101310.19;5010657;28;20200;-43
2023/01/31 05:59:43;;;;;;;14.52;3.13;;;;;;;2.57;100.00;101311.06;5010181;28;20196;-48
2023/01/31 06:02:10;;;;;;;15.40;3.25;;;;;;;2.59;100.00;101301.38;5010150;28;20177;-46
2023/01/31 06:04:36;;;;;;;20.38;3.15;;;;;;;2.59;100.00;101297.84;5009403;28;20215;-48
2023/01/31 06:07:02;;;;;;;14.55;3.10;;;;;;;2.55;100.00;101299.59;5010290;28;20215;-46
2023/01/31 06:09:28;;;;;;;28.75;3.53;;;;;;;2.58;100.00;101301.34;5012499;28;20192;-49
2023/01/31 06:11:53;;;;;;;20.27;3.53;;;;;;;2.58;100.00;101304.91;5010103;28;20169;-46
2023/01/31 06:14:19;;;;;;;21.38;3.42;;;;;;;2.59;100.00;101298.72;5009953;28;20196;-46
2023/01/31 06:16:44;;;;;;;19.23;3.28;;;;;;;2.62;100.00;101296.09;5010247;28;20555;-45
2023/01/31 06:19:10;;;;;;;24.08;3.03;;;;;;;2.62;100.00;101279.31;5010214;28;20202;-46
2023/01/31 06:21:35;;;;;;;18.42;2.83;;;;;;;2.62;100.00;101287.25;5010078;28;20168;-43
2023/01/31 06:24:01;;;;;;;18.52;3.55;;;;;;;2.67;100.00;101272.28;5009457;28;20299;-48
2023/01/31 06:26:26;;;;;;;30.67;3.33;;;;;;;2.67;100.00;101272.28;5010296;28;20204;-48
2023/01/31 06:28:52;;;;;;;15.05;2.67;;;;;;;2.70;100.00;101271.41;5010276;28;20603;-45
2023/01/31 06:31:18;;;;;;;22.92;3.33;;;;;;;2.67;100.00;101269.66;5009063;28;20184;-44
2023/01/31 06:33:43;;;;;;;18.23;3.47;;;;;;;2.66;100.00;101259.94;5009469;28;20659;-47
2023/01/31 06:36:09;;;;;;;27.63;3.30;;;;;;;2.72;100.00;101261.72;5009669;28;20181;-50
2023/01/31 06:38:34;;;;;;;25.75;3.28;;;;;;;2.73;100.00;101256.41;5008366;28;20274;-44
2023/01/31 06:41:00;;;;;;;18.35;3.33;;;;;;;2.77;100.00;101250.22;5007769;28;20180;-45
2023/01/31 06:43:25;;;;;;;23.70;3.35;;;;;;;2.80;100.00;101257.28;5008799;28;20192;-46
2023/01/31 06:45:51;;;;;;;18.75;3.38;;;;;;;2.81;100.00;101262.59;5006568;28;20235;-44
2023/01/31 06:48:18;;;;;;;28.52;3.33;;;;;;;2.80;100.00;101255.53;5008817;28;20197;-44
2023/01/31 06:50:43;;;;;;;17.88;2.88;;;;;;;2.81;100.00;101254.66;5007369;28;20660;-46
2023/01/31 06:53:09;;;;;;;12.60;2.22;;;;;;;2.91;100.00;101254.66;5008418;28;20212;-46
2023/01/31 06:55:35;;;;;;;22.73;2.92;;;;;;;2.88;100.00;101258.19;5007432;28;20183;-44
2023/01/31 06:58:00;;;;;;;21.88;3.33;;;;;;;2.91;100.00;101246.72;5009063;28;20675;-43
2023/01/31 07:00:26;;;;;;;20.75;2.97;;;;;;;2.94;100.00;101252.03;5008754;28;20184;-49
2023/01/31 07:02:52;;;;;;;19.40;3.70;;;;;;;3.05;100.00;101242.31;5009295;28;20600;-44
2023/01/31 07:05:19;;;;;;;20.08;3.45;;;;;;;3.11;100.00;101241.44;5009328;28;20208;-44
2023/01/31 07:07:45;;;;;;;24.80;4.07;;;;;;;3.10;100.00;101229.94;5009002;28;20204;-44
2023/01/31 07:10:12;;;;;;;23.85;3.78;;;;;;;3.11;100.00;101239.66;5009180;28;20172;-43
2023/01/31 07:12:38;;;;;;;26.70;4.10;;;;;;;3.13;100.00;101227.31;5008982;28;20196;-45
2023/01/31 07:15:04;;;;;;;28.73;3.85;;;;;;;3.15;100.00;101220.25;5009033;28;20189;-50
2023/01/31 07:17:30;;;;;;;19.02;3.08;;;;;;;3.19;100.00;101221.09;5009392;28;20580;-46
2023/01/31 07:19:55;;;;;;;20.30;4.15;;;;;;;3.24;100.00;101206.97;5008935;28;20176;-45
2023/01/31 07:22:21;;;;;;;24.80;3.80;;;;;;;3.23;100.00;101204.31;5007760;28;20263;-45
2023/01/31 07:24:49;;;;;;;20.42;3.55;;;;;;;3.31;100.00;101197.25;5008745;28;20569;-45
2023/01/31 07:27:15;;;;;;;18.05;3.25;;;;;;;3.27;100.00;101190.19;5011477;28;20646;-41
2023/01/31 07:29:41;;;;;;;23.15;3.40;;;;;;;3.24;100.00;101184.94;5011421;28;20172;-44
2023/01/31 07:32:07;;;;;;;25.35;3.47;;;;;;;3.24;100.00;101180.50;5011780;28;20215;-52
2023/01/31 07:34:32;;;;;;;19.33;3.42;;;;;;;3.27;100.00;101172.53;5011158;28;20235;-47
2023/01/31 07:37:00;;;;;;;23.30;3.60;;;;;;;3.33;100.00;101160.19;5012037;28;20208;-47
2023/01/31 07:39:26;;;;;;;22.45;3.65;;;;;;;3.33;100.00;101162.84;5012696;28;20200;-46
2023/01/31 07:41:51;;;;;;;16.27;3.15;;;;;;;3.34;100.00;101154.00;5009056;28;20176;-43
2023/01/31 07:44:17;;;;;;;32.97;3.75;;;;;;;3.34;100.00;101159.28;5010385;28;20784;-45
2023/01/31 07:46:42;;;;;;;20.80;3.20;;;;;;;3.39;100.00;101141.59;5011308;28;20288;-47
2023/01/31 07:49:09;;;;;;;25.55;3.53;;;;;;;3.43;100.00;101146.00;5015825;28;20208;-46
2023/01/31 07:51:34;;;;;;;25.55;4.28;;;;;;;3.42;100.00;101138.97;5009601;28;20181;-43
2023/01/31 07:54:00;;;;;;;25.63;3.90;;;;;;;3.39;100.00;101137.22;5011742;28;20603;-45
2023/01/31 07:56:26;;;;;;;31.50;4.45;;;;;;;3.40;100.00;101135.44;5011553;28;20585;-45
2023/01/31 07:58:52;;;;;;;19.67;3.97;;;;;;;3.56;100.00;101117.69;5011654;28;20204;-50
2023/01/31 08:04:10;;;;;;;26.38;4.03;;;;;;;3.49;100.00;101111.56;5010563;28;20284;-44
2023/01/31 08:06:38;;;;;;;31.55;5.10;;;;;;;3.59;100.00;101100.03;5012143;28;20194;-47
2023/01/31 08:09:03;;;;;;;28.95;4.93;;;;;;;3.67;100.00;101087.63;5011631;28;20173;-44
2023/01/31 08:11:29;;;;;;;28.27;4.53;;;;;;;3.71;100.00;101104.38;5011158;28;20181;-48
2023/01/31 08:13:54;;;;;;;24.00;5.32;;;;;;;3.72;100.00;101092.91;5011770;28;20609;-44
2023/01/31 08:16:20;;;;;;;33.78;5.97;;;;;;;3.76;100.00;101077.84;5011478;28;20260;-44
2023/01/31 08:18:47;;;;;;;28.30;6.15;;;;;;;3.80;100.00;101082.22;5012213;28;20204;-44
2023/01/31 08:21:13;;;;;;;29.70;5.57;;;;;;;3.83;100.00;101088.41;5011011;28;20187;-46
2023/01/31 08:23:40;;;;;;;32.22;5.45;;;;;;;3.92;100.00;101085.69;5011779;28;20239;-47
2023/01/31 08:26:16;;;;;;;28.63;4.80;;;;;;;3.87;100.00;101068.94;5011249;28;20225;-50
2023/01/31 08:28:43;;;;;;;24.35;4.65;;;;;;;3.90;100.00;101068.91;5012380;28;20212;-45
2023/01/31 08:31:14;;;;;;;26.50;5.25;;;;;;;3.89;100.00;101074.22;5010981;28;20724;-45
2023/01/31 08:33:39;;;;;;;18.30;4.22;;;;;;;3.88;100.00;101070.69;5010307;28;20181;-50
2023/01/31 08:36:17;;;;;;;20.23;4.30;;;;;;;3.86;100.00;101055.69;5011472;28;20176;-42
2023/01/31 08:38:43;;;;;;;20.25;4.13;;;;;;;3.90;100.00;101062.75;5012195;28;20200;-45
2023/01/31 08:41:10;;;;;;;26.40;4.32;;;;;;;3.86;100.00;101058.34;5009463;28;20192;-46
2023/01/31 08:43:36;;;;;;;22.77;5.00;;;;;;;3.84;100.00;101057.47;5011163;28;20220;-43
2023/01/31 08:46:06;;;;;;;25.08;4.18;;;;;;;3.84;100.00;101045.09;5009672;28;20208;-49
2023/01/31 08:48:33;;;;;;;17.73;4.30;;;;;;;3.83;100.00;101046.00;5011659;28;20204;-45
2023/01/31 08:51:06;;;;;;;19.58;4.57;;;;;;;3.92;100.00;101034.47;5008025;28;20192;-51
2023/01/31 08:53:32;;;;;;;21.90;4.63;;;;;;;3.85;100.00;101023.03;5010436;28;20193;-44
2023/01/31 08:56:04;;;;;;;19.45;5.05;;;;;;;3.84;100.00;101017.72;5009477;28;20177;-45
2023/01/31 08:58:34;;;;;;;21.40;4.70;;;;;;;3.82;100.00;101006.25;5011823;28;20212;-46
2023/01/31 09:01:01;;;;;;;16.27;4.28;;;;;;;3.80;100.00;101008.03;5009680;28;20177;-48
2023/01/31 09:03:27;;;;;;;18.10;4.50;;;;;;;3.80;100.00;100986.81;5010679;28;20184;-49
2023/01/31 09:05:53;;;;;;;18.08;4.65;;;;;;;3.81;100.00;100994.78;5009445;28;20251;-46
2023/01/31 09:08:18;;;;;;;24.30;3.97;;;;;;;3.82;100.00;100985.06;5011667;28;20204;-46
2023/01/31 09:10:51;;;;;;;16.95;4.22;;;;;;;3.79;100.00;100995.69;5009565;28;20180;-47
2023/01/31 09:13:17;;;;;;;16.17;4.20;;;;;;;3.84;100.00;100985.91;5009600;28;20184;-43
2023/01/31 09:15:42;;;;;;;12.93;3.80;;;;;;;3.81;100.00;100972.69;5010922;28;20527;-43
2023/01/31 09:18:08;;;;;;;15.02;4.30;;;;;;;3.78;100.00;100978.00;5010769;28;20227;-45
2023/01/31 09:20:33;;;;;;;17.20;3.65;;;;;;;3.78;100.00;100970.06;5009945;28;20172;-50
2023/01/31 09:22:59;;;;;;;16.73;4.18;;;;;;;3.78;100.00;100976.22;5010530;28;20184;-48
2023/01/31 09:25:24;;;;;;;16.50;4.60;;;;;;;3.78;100.00;100978.88;5009816;28;20240;-47
2023/01/31 09:27:52;;;;;;;16.50;4.50;;;;;;;3.87;100.00;100967.31;4992602;28;20396;-50
2023/01/31 09:30:18;;;;;;;15.18;4.55;;;;;;;3.80;100.00;100963.84;5009714;28;20183;-52
2023/01/31 09:32:44;;;;;;;13.45;4.03;;;;;;;3.84;100.00;100970.88;5012248;28;20181;-49
2023/01/31 09:35:11;;;;;;;11.77;3.72;;;;;;;3.82;100.00;100958.53;5010584;28;20176;-48
2023/01/31 09:37:37;;;;;;;15.05;4.13;;;;;;;3.81;100.00;100960.31;5012757;28;20200;-45
2023/01/31 09:40:05;;;;;;;13.80;3.95;;;;;;;3.88;100.00;100961.16;5010791;28;20187;-50
2023/01/31 09:42:37;;;;;;;14.63;3.58;;;;;;;3.91;100.00;100939.91;5011815;28;20291;-50
2023/01/31 09:45:05;;;;;;;9.88;3.10;;;;;;;3.95;100.00;100941.63;5014370;28;20199;-48
2023/01/31 09:47:42;;;;;;;5.90;3.03;;;;;;;3.99;100.00;100935.41;5013063;28;20209;-46
2023/01/31 09:50:32;;;;;;;7.18;2.92;;;;;;;4.00;100.00;100928.34;5010240;28;20539;-45
2023/01/31 09:52:58;;;;;;;10.57;3.00;;;;;;;3.99;100.00;100916.00;5009318;28;20188;-46
2023/01/31 09:55:45;;;;;;;9.75;3.22;;;;;;;4.00;100.00;100912.44;5010168;28;20185;-48
2023/01/31 09:58:32;;;;;;;11.40;3.03;;;;;;;4.00;100.00;100902.72;5008066;28;20208;-42
2023/01/31 10:01:20;;;;;;;6.57;2.78;;;;;;;4.00;100.00;100910.69;5009200;28;20640;-50
2023/01/31 10:03:57;;;;;;;7.10;2.70;;;;;;;4.09;100.00;100909.72;5009965;28;20280;-46
2023/01/31 10:07:01;;;;;;;6.53;2.72;;;;;;;4.09;100.00;100892.03;5010285;28;20262;-45
2023/01/31 10:09:39;;;;;;;8.02;2.55;;;;;;;4.13;100.00;100888.44;4997572;28;20200;-42
2023/01/31 10:12:16;;;;;;;6.22;2.70;;;;;;;4.18;100.00;100882.22;5010929;28;20183;-44
2023/01/31 10:14:49;;;;;;;7.28;2.60;;;;;;;4.33;100.00;100879.41;5007962;28;20528;-47
2023/01/31 10:17:24;;;;;;;7.50;2.75;;;;;;;4.35;100.00;100872.25;5009868;28;20206;-45
2023/01/31 10:19:56;;;;;;;6.95;2.63;;;;;;;4.31;100.00;100852.88;5016617;28;20684;-44
2023/01/31 10:22:49;;;;;;;6.60;2.83;;;;;;;4.35;100.00;100861.66;5009402;28;20291;-44
2023/01/31 10:25:35;;;;;;;6.60;2.55;;;;;;;4.36;100.00;100849.28;5009030;28;20219;-42
2023/01/31 10:28:25;;;;;;;5.28;2.20;;;;;;;4.35;100.00;100866.97;5011278;28;20228;-44
2023/01/31 10:31:25;;;;;;;7.53;2.67;;;;;;;4.30;100.00;100848.44;5009002;28;20203;-44
2023/01/31 10:34:28;;;;;;;8.15;2.83;;;;;;;4.34;100.00;100842.22;5007837;28;20177;-51
2023/01/31 10:37:06;;;;;;;7.97;2.90;;;;;;;4.37;100.00;100836.00;4929755;29;20293;-45
2023/01/31 10:39:37;;;;;;;7.78;2.30;;;;;;;4.38;100.00;100823.63;5002188;28;20192;-43
2023/01/31 10:42:33;;;;;;;10.85;2.97;;;;;;;4.39;100.00;100815.63;5007268;28;20196;-49
2023/01/31 10:45:12;;;;;;;8.68;2.72;;;;;;;4.42;100.00;100834.19;5009583;28;20274;-47
2023/01/31 10:47:49;;;;;;;9.55;2.75;;;;;;;4.44;100.00;100821.78;5009041;28;20200;-45
2023/01/31 10:51:02;;;;;;;8.00;2.92;;;;;;;4.45;100.00;100823.50;5008553;28;20246;-45
2023/01/31 10:53:48;;;;;;;6.35;2.20;;;;;;;4.52;100.00;100817.22;4968056;28;20709;-47
2023/01/31 10:56:39;;;;;;;7.32;2.53;;;;;;;4.54;100.00;100819.88;4967735;28;20324;-50
2023/01/31 10:59:13;;;;;;;7.72;2.42;;;;;;;4.67;100.00;100810.84;5001888;28;20575;-45
2023/01/31 11:01:39;;;;;;;5.80;2.28;;;;;;;4.63;100.00;100794.97;5010081;28;20184;-46
2023/01/31 11:04:29;;;;;;;5.18;2.35;;;;;;;4.67;100.00;100784.28;5013775;28;20173;-46
2023/01/31 11:06:58;;;;;;;11.38;2.40;;;;;;;4.64;100.00;100794.97;5013060;28;20274;-44
2023/01/31 11:09:28;;;;;;;6.93;2.22;;;;;;;4.66;100.00;100787.84;5013928;28;20177;-44
2023/01/31 11:11:59;;;;;;;8.75;2.67;;;;;;;4.73;100.00;100780.69;5012857;28;20184;-43
2023/01/31 11:14:25;;;;;;;9.50;3.08;;;;;;;4.74;100.00;100778.03;5012090;28;20275;-46
2023/01/31 11:17:20;;;;;;;8.10;2.67;;;;;;;4.74;100.00;100772.72;5013262;28;20682;-47
2023/01/31 11:19:52;;;;;;;7.43;2.28;;;;;;;4.71;100.00;100774.53;5008978;28;20196;-45
2023/01/31 11:22:24;;;;;;;8.73;1.90;;;;;;;4.75;100.00;100778.88;5012143;28;20189;-43
2023/01/31 11:24:50;;;;;;;8.57;2.30;;;;;;;4.74;100.00;100771.81;5013026;28;20308;-45
2023/01/31 11:27:26;;;;;;;8.10;2.35;;;;;;;4.77;100.00;100766.47;5012461;28;20216;-45
2023/01/31 11:29:54;;;;;;;6.30;2.15;;;;;;;4.86;100.00;100778.72;5013020;28;20184;-44
2023/01/31 11:32:33;;;;;;;7.90;2.38;;;;;;;4.87;100.00;100778.69;5011661;28;20169;-44
2023/01/31 11:35:02;;;;;;;5.13;2.20;;;;;;;4.88;100.00;100774.28;5012243;28;20208;-47
2023/01/31 11:37:28;;;;;;;6.47;2.35;;;;;;;4.91;100.00;100768.91;5012007;28;20192;-46